createdAt,value
2019-05-09T00:00:37.868Z,4.40
2019-05-09T00:06:40.071Z,3.67
2019-05-09T00:12:43.724Z,4.12
2019-05-09T00:18:46.351Z,6.08
2019-05-09T00:24:48.619Z,5.60
2019-05-09T00:31:04.879Z,5.78
2019-05-09T00:37:07.223Z,6.15
2019-05-09T00:43:09.508Z,6.67
2019-05-09T00:49:14.090Z,8.85
2019-05-09T00:55:16.472Z,5.72
2019-05-09T01:01:19.355Z,7.60
2019-05-09T01:07:23.253Z,10.32
2019-05-09T01:13:25.631Z,14.10
2019-05-09T01:19:28.053Z,12.25
2019-05-09T01:25:30.633Z,9.30
2019-05-09T01:31:33.517Z,10.15
2019-05-09T01:37:35.780Z,10.82
2019-05-09T01:43:37.940Z,11.63
2019-05-09T01:49:40.182Z,17.57
2019-05-09T01:55:57.400Z,22.77
2019-05-09T02:01:59.655Z,25.97
2019-05-09T02:08:03.372Z,19.35
2019-05-09T02:14:05.887Z,47.08
2019-05-09T02:20:09.035Z,23.45
2019-05-09T02:26:13.367Z,10.95
2019-05-09T02:32:15.508Z,10.40
2019-05-09T02:38:19.952Z,10.38
2019-05-09T02:44:21.931Z,12.20
2019-05-09T02:50:24.235Z,11.55
2019-05-09T02:56:29.454Z,12.33
2019-05-09T03:02:33.326Z,14.73
2019-05-09T03:08:38.287Z,13.40
2019-05-09T03:14:40.089Z,14.73
2019-05-09T03:20:50.465Z,15.13
2019-05-09T03:27:13.025Z,16.12
2019-05-09T03:33:21.636Z,17.95
2019-05-09T03:39:27.583Z,18.82
2019-05-09T03:45:30.451Z,18.35
2019-05-09T03:51:32.754Z,14.85
2019-05-09T03:57:37.359Z,10.03
2019-05-09T04:03:39.598Z,7.47
2019-05-09T04:09:41.835Z,5.62
2019-05-09T04:15:44.148Z,6.28
2019-05-09T04:21:48.436Z,5.33
2019-05-09T04:27:51.779Z,6.35
2019-05-09T04:33:54.194Z,3.10
2019-05-09T04:39:59.560Z,4.83
2019-05-09T04:46:02.278Z,3.08
2019-05-09T04:52:04.519Z,2.47
2019-05-09T04:58:09.303Z,2.77
2019-05-09T05:04:11.516Z,4.65
2019-05-09T05:10:13.671Z,2.92
2019-05-09T05:16:18.290Z,3.37
2019-05-09T05:22:28.404Z,4.83
2019-05-09T05:28:30.851Z,4.30
2019-05-09T05:34:35.072Z,3.02
2019-05-09T05:40:45.025Z,1.55
2019-05-09T05:46:52.363Z,1.32
2019-05-09T05:52:54.604Z,3.30
2019-05-09T05:58:58.089Z,1.55
2019-05-09T06:05:00.386Z,0.82
2019-05-09T06:11:02.719Z,1.07
2019-05-09T06:17:07.620Z,2.50
2019-05-09T06:23:09.369Z,1.90
2019-05-09T06:29:11.641Z,2.92
2019-05-09T06:35:22.412Z,1.75
2019-05-09T06:41:24.691Z,1.52
2019-05-09T06:47:28.936Z,1.72
2019-05-09T06:53:31.179Z,3.33
2019-05-09T06:59:33.458Z,3.50
2019-05-09T07:05:53.231Z,2.45
2019-05-09T07:11:55.478Z,3.27
2019-05-09T07:17:57.888Z,1.05
2019-05-09T07:24:00.499Z,1.90
2019-05-09T07:30:07.564Z,3.95
2019-05-09T07:36:10.064Z,1.20
2019-05-09T07:42:12.268Z,2.45
2019-05-09T07:48:14.665Z,1.25
2019-05-09T07:54:24.793Z,3.35
2019-05-09T08:00:30.772Z,1.70
2019-05-09T08:06:33.155Z,1.35
2019-05-09T08:12:35.318Z,1.55
2019-05-09T08:18:37.748Z,1.60
2019-05-09T08:24:39.955Z,0.93
2019-05-09T08:30:42.338Z,1.20
2019-05-09T08:36:44.839Z,1.90
2019-05-09T08:42:48.021Z,2.70
2019-05-09T08:48:50.395Z,1.05
2019-05-09T08:54:57.848Z,1.22
2019-05-09T09:01:04.052Z,0.88
2019-05-09T09:07:04.635Z,2.27
2019-05-09T09:13:08.756Z,2.92
2019-05-09T09:19:11.480Z,0.85
2019-05-09T09:25:13.771Z,0.70
2019-05-09T09:31:18.039Z,1.95
2019-05-09T09:37:20.867Z,2.22
2019-05-09T09:43:23.082Z,7.20
2019-05-09T09:49:25.352Z,5.12
2019-05-09T09:55:28.229Z,1.02
2019-05-09T10:01:32.518Z,1.00
2019-05-09T10:07:34.797Z,0.70
2019-05-09T10:13:37.603Z,1.40
2019-05-09T10:19:53.520Z,1.87
2019-05-09T10:25:57.986Z,0.42
2019-05-09T10:31:59.913Z,1.87
2019-05-09T10:38:03.527Z,1.27
2019-05-09T10:44:10.859Z,1.77
2019-05-09T10:50:13.279Z,0.72
2019-05-09T10:56:18.384Z,2.00
2019-05-09T11:02:20.967Z,1.80
2019-05-09T11:08:23.285Z,2.33
2019-05-09T11:14:36.186Z,0.80
2019-05-09T11:20:29.572Z,1.27
2019-05-09T11:26:31.813Z,2.95
2019-05-09T11:32:40.059Z,2.85
2019-05-09T11:38:44.097Z,1.67
2019-05-09T11:44:46.628Z,1.10
2019-05-09T11:50:48.875Z,2.65
2019-05-09T11:56:51.183Z,2.85
2019-05-09T12:02:53.366Z,4.72
2019-05-09T12:08:55.561Z,1.77
2019-05-09T12:14:58.213Z,7.40
2019-05-09T12:21:00.577Z,2.90
2019-05-09T12:27:03.222Z,3.40
2019-05-09T12:33:08.322Z,3.37
2019-05-09T12:39:09.943Z,2.22
2019-05-09T12:45:13.087Z,2.72
2019-05-09T12:51:15.329Z,2.50
2019-05-09T12:57:19.229Z,1.98
2019-05-09T13:03:21.693Z,1.65
2019-05-09T13:09:24.044Z,1.57
2019-05-09T13:15:31.100Z,1.30
2019-05-09T13:21:33.116Z,1.05
2019-05-09T13:27:37.972Z,3.42
2019-05-09T13:33:42.277Z,1.55
2019-05-09T13:39:44.552Z,1.20
2019-05-09T13:45:46.900Z,1.52
2019-05-09T13:51:58.243Z,2.15
2019-05-09T13:57:53.296Z,1.67
2019-05-09T14:03:57.669Z,3.67
2019-05-09T14:09:59.850Z,1.57
2019-05-09T14:16:15.491Z,1.45
2019-05-09T14:29:20.507Z,2.37
2019-05-09T14:35:20.692Z,3.25
2019-05-09T14:41:22.924Z,1.42
2019-05-09T14:47:27.695Z,3.50
2019-05-09T14:53:29.248Z,2.00
2019-05-09T14:59:31.695Z,2.95
2019-05-09T15:05:34.143Z,1.55
2019-05-09T15:11:39.500Z,0.90
2019-05-09T15:17:42.248Z,1.32
2019-05-09T15:23:44.779Z,3.02
2019-05-09T15:29:48.664Z,2.58
2019-05-09T15:35:51.090Z,4.85
2019-05-09T15:41:53.348Z,2.17
2019-05-09T15:47:58.170Z,2.65
2019-05-09T15:53:59.770Z,2.05
2019-05-09T16:00:02.192Z,3.40
2019-05-09T16:06:04.487Z,4.72
2019-05-09T16:12:07.800Z,3.90
2019-05-09T16:18:10.334Z,3.35
2019-05-09T16:24:13.008Z,2.80
2019-05-09T16:30:15.305Z,1.77
2019-05-09T16:36:17.874Z,3.20
2019-05-09T16:42:22.120Z,5.40
2019-05-09T16:48:27.519Z,3.70
2019-05-09T16:54:31.588Z,2.35
2019-05-09T17:00:42.714Z,2.87
2019-05-09T17:06:45.376Z,3.90
2019-05-09T17:12:47.941Z,2.60
2019-05-09T17:18:50.461Z,1.62
2019-05-09T17:24:52.861Z,2.75
2019-05-09T17:30:57.651Z,4.83
2019-05-09T17:36:59.320Z,4.00
2019-05-09T17:43:03.807Z,3.37
2019-05-09T17:49:08.193Z,4.00
2019-05-09T17:55:10.301Z,3.45
2019-05-09T18:01:15.129Z,2.72
2019-05-09T18:07:20.098Z,4.50
2019-05-09T18:13:23.919Z,3.33
2019-05-09T18:19:26.365Z,3.87
2019-05-09T18:25:28.845Z,2.55
2019-05-09T18:31:33.084Z,4.42
2019-05-09T18:37:44.434Z,2.92
2019-05-09T18:43:48.963Z,3.27
2019-05-09T18:49:51.344Z,3.65
2019-05-09T18:55:54.066Z,4.47
2019-05-09T19:01:57.139Z,4.58
2019-05-09T19:07:59.292Z,3.98
2019-05-09T19:14:03.342Z,4.62
2019-05-09T19:20:23.964Z,3.02
2019-05-09T19:26:35.249Z,5.25
2019-05-09T19:32:37.391Z,4.90
2019-05-09T19:38:42.893Z,2.98
2019-05-09T19:44:48.270Z,2.55
2019-05-09T19:51:10.347Z,2.25
2019-05-09T19:57:13.682Z,2.08
2019-05-09T20:03:15.915Z,3.67
2019-05-09T20:09:20.061Z,3.15
2019-05-09T20:15:23.391Z,2.02
2019-05-09T20:21:25.704Z,3.65
2019-05-09T20:27:28.241Z,2.27
2019-05-09T20:33:30.344Z,2.90
2019-05-09T20:39:32.545Z,1.45
2019-05-09T20:45:37.164Z,2.10
2019-05-09T20:51:39.627Z,1.47
2019-05-09T20:57:41.875Z,2.15
2019-05-09T21:03:58.821Z,1.57
2019-05-09T21:09:48.421Z,2.60
2019-05-09T21:15:50.600Z,1.75
2019-05-09T21:21:53.155Z,2.85
2019-05-09T21:27:55.487Z,3.60
2019-05-09T21:33:57.696Z,2.50
2019-05-09T21:39:59.884Z,3.08
2019-05-09T21:46:02.072Z,3.10
2019-05-09T21:52:06.407Z,2.80
2019-05-09T21:58:08.637Z,3.00
2019-05-09T22:04:10.819Z,2.40
2019-05-09T22:10:13.133Z,3.50
2019-05-09T22:16:15.414Z,2.37
2019-05-09T22:22:17.547Z,3.90
2019-05-09T22:28:19.812Z,3.85
2019-05-09T22:34:21.976Z,2.72
2019-05-09T22:40:24.138Z,3.02
2019-05-09T22:46:26.256Z,3.77
2019-05-09T22:52:28.437Z,5.72
2019-05-09T22:58:32.788Z,2.45
2019-05-09T23:04:35.032Z,3.45
2019-05-09T23:10:37.231Z,3.45
2019-05-09T23:16:40.732Z,5.15
2019-05-09T23:22:42.980Z,4.87
2019-05-09T23:28:45.467Z,5.22
2019-05-09T23:34:47.622Z,5.75
2019-05-09T23:40:49.835Z,3.40
2019-05-09T23:46:52.068Z,5.05
2019-05-09T23:52:54.534Z,4.50
2019-05-09T23:59:17.626Z,4.80
